sensor_id;sensor_type;location;lat;lon;timestamp;P1;durP1;ratioP1;P2;durP2;ratioP2
54871;SDS011;43914;57.680;11.982;2022-08-20T00:00:21;7.37;;;2.10;;
54871;SDS011;43914;57.680;11.982;2022-08-20T00:02:51;7.00;;;2.25;;
54871;SDS011;43914;57.680;11.982;2022-08-20T00:05:22;6.60;;;2.20;;
54871;SDS011;43914;57.680;11.982;2022-08-20T00:07:51;6.45;;;2.05;;
54871;SDS011;43914;57.680;11.982;2022-08-20T00:10:18;7.40;;;2.30;;
54871;SDS011;43914;57.680;11.982;2022-08-20T00:12:45;6.80;;;2.10;;
54871;SDS011;43914;57.680;11.982;2022-08-20T00:15:14;7.87;;;2.17;;
54871;SDS011;43914;57.680;11.982;2022-08-20T00:17:45;7.42;;;2.10;;
54871;SDS011;43914;57.680;11.982;2022-08-20T00:20:12;6.87;;;2.20;;
54871;SDS011;43914;57.680;11.982;2022-08-20T00:22:39;8.95;;;2.00;;
54871;SDS011;43914;57.680;11.982;2022-08-20T00:25:05;8.60;;;2.15;;
54871;SDS011;43914;57.680;11.982;2022-08-20T00:27:33;7.67;;;2.30;;
54871;SDS011;43914;57.680;11.982;2022-08-20T00:29:59;7.50;;;2.00;;
54871;SDS011;43914;57.680;11.982;2022-08-20T00:32:25;7.78;;;2.37;;
54871;SDS011;43914;57.680;11.982;2022-08-20T00:34:51;9.28;;;2.02;;
54871;SDS011;43914;57.680;11.982;2022-08-20T00:37:17;6.92;;;2.08;;
54871;SDS011;43914;57.680;11.982;2022-08-20T00:39:43;6.37;;;2.00;;
54871;SDS011;43914;57.680;11.982;2022-08-20T00:42:09;9.95;;;1.90;;
54871;SDS011;43914;57.680;11.982;2022-08-20T00:44:35;6.85;;;2.10;;
54871;SDS011;43914;57.680;11.982;2022-08-20T00:47:01;7.15;;;1.75;;
54871;SDS011;43914;57.680;11.982;2022-08-20T00:49:30;6.00;;;2.05;;
54871;SDS011;43914;57.680;11.982;2022-08-20T00:54:42;5.15;;;1.90;;
54871;SDS011;43914;57.680;11.982;2022-08-20T00:57:22;5.75;;;1.80;;
54871;SDS011;43914;57.680;11.982;2022-08-20T00:59:49;5.62;;;1.80;;
54871;SDS011;43914;57.680;11.982;2022-08-20T01:02:17;7.37;;;1.80;;
54871;SDS011;43914;57.680;11.982;2022-08-20T01:04:46;5.40;;;1.70;;
54871;SDS011;43914;57.680;11.982;2022-08-20T01:07:14;5.37;;;1.62;;
54871;SDS011;43914;57.680;11.982;2022-08-20T01:09:40;6.08;;;1.60;;
54871;SDS011;43914;57.680;11.982;2022-08-20T01:12:06;6.87;;;1.72;;
54871;SDS011;43914;57.680;11.982;2022-08-20T01:14:33;7.08;;;1.75;;
54871;SDS011;43914;57.680;11.982;2022-08-20T01:17:05;6.33;;;1.87;;
54871;SDS011;43914;57.680;11.982;2022-08-20T01:19:36;6.15;;;1.50;;
54871;SDS011;43914;57.680;11.982;2022-08-20T01:22:06;5.72;;;1.75;;
54871;SDS011;43914;57.680;11.982;2022-08-20T01:24:35;5.40;;;1.60;;
54871;SDS011;43914;57.680;11.982;2022-08-20T01:27:05;6.17;;;1.60;;
54871;SDS011;43914;57.680;11.982;2022-08-20T01:29:36;5.83;;;1.90;;
54871;SDS011;43914;57.680;11.982;2022-08-20T01:32:04;5.45;;;1.90;;
54871;SDS011;43914;57.680;11.982;2022-08-20T01:34:31;5.72;;;1.75;;
54871;SDS011;43914;57.680;11.982;2022-08-20T01:36:57;7.03;;;1.70;;
54871;SDS011;43914;57.680;11.982;2022-08-20T01:39:32;5.90;;;1.72;;
54871;SDS011;43914;57.680;11.982;2022-08-20T01:44:47;6.53;;;1.62;;
54871;SDS011;43914;57.680;11.982;2022-08-20T01:47:15;4.97;;;1.70;;
54871;SDS011;43914;57.680;11.982;2022-08-20T01:49:51;6.08;;;1.70;;
54871;SDS011;43914;57.680;11.982;2022-08-20T01:52:27;6.75;;;1.92;;
54871;SDS011;43914;57.680;11.982;2022-08-20T01:55:04;6.45;;;1.80;;
54871;SDS011;43914;57.680;11.982;2022-08-20T01:57:30;5.92;;;1.55;;
54871;SDS011;43914;57.680;11.982;2022-08-20T01:59:59;5.20;;;1.47;;
54871;SDS011;43914;57.680;11.982;2022-08-20T02:02:26;4.72;;;1.50;;
54871;SDS011;43914;57.680;11.982;2022-08-20T02:04:52;5.45;;;1.90;;
54871;SDS011;43914;57.680;11.982;2022-08-20T02:07:20;8.23;;;1.80;;
54871;SDS011;43914;57.680;11.982;2022-08-20T02:09:48;8.08;;;1.92;;
54871;SDS011;43914;57.680;11.982;2022-08-20T02:12:14;6.03;;;1.85;;
54871;SDS011;43914;57.680;11.982;2022-08-20T02:14:42;5.90;;;2.20;;
54871;SDS011;43914;57.680;11.982;2022-08-20T02:17:12;5.83;;;1.85;;
54871;SDS011;43914;57.680;11.982;2022-08-20T02:19:43;7.58;;;2.75;;
54871;SDS011;43914;57.680;11.982;2022-08-20T02:24:46;9.53;;;2.67;;
54871;SDS011;43914;57.680;11.982;2022-08-20T02:27:12;7.72;;;2.80;;
54871;SDS011;43914;57.680;11.982;2022-08-20T02:29:38;9.85;;;2.70;;
54871;SDS011;43914;57.680;11.982;2022-08-20T02:32:05;7.05;;;2.70;;
54871;SDS011;43914;57.680;11.982;2022-08-20T02:34:32;8.00;;;2.67;;
54871;SDS011;43914;57.680;11.982;2022-08-20T02:36:59;6.70;;;2.65;;
54871;SDS011;43914;57.680;11.982;2022-08-20T02:39:27;7.65;;;2.72;;
54871;SDS011;43914;57.680;11.982;2022-08-20T02:41:53;7.85;;;2.95;;
54871;SDS011;43914;57.680;11.982;2022-08-20T02:44:18;7.75;;;2.58;;
54871;SDS011;43914;57.680;11.982;2022-08-20T02:46:45;5.87;;;2.20;;
54871;SDS011;43914;57.680;11.982;2022-08-20T02:49:14;7.35;;;2.70;;
54871;SDS011;43914;57.680;11.982;2022-08-20T02:51:42;7.75;;;2.80;;
54871;SDS011;43914;57.680;11.982;2022-08-20T02:54:09;6.85;;;2.83;;
54871;SDS011;43914;57.680;11.982;2022-08-20T02:56:36;10.38;;;2.90;;
54871;SDS011;43914;57.680;11.982;2022-08-20T02:59:03;6.10;;;2.40;;
54871;SDS011;43914;57.680;11.982;2022-08-20T03:01:29;6.65;;;2.47;;
54871;SDS011;43914;57.680;11.982;2022-08-20T03:03:55;6.70;;;2.60;;
54871;SDS011;43914;57.680;11.982;2022-08-20T03:06:24;8.98;;;2.65;;
54871;SDS011;43914;57.680;11.982;2022-08-20T03:08:51;6.53;;;2.50;;
54871;SDS011;43914;57.680;11.982;2022-08-20T03:11:17;7.03;;;2.80;;
54871;SDS011;43914;57.680;11.982;2022-08-20T03:13:45;7.53;;;2.60;;
54871;SDS011;43914;57.680;11.982;2022-08-20T03:16:12;9.33;;;2.87;;
54871;SDS011;43914;57.680;11.982;2022-08-20T03:18:43;7.55;;;2.70;;
54871;SDS011;43914;57.680;11.982;2022-08-20T03:21:09;8.40;;;2.90;;
54871;SDS011;43914;57.680;11.982;2022-08-20T03:23:37;7.42;;;2.90;;
54871;SDS011;43914;57.680;11.982;2022-08-20T03:26:05;7.85;;;3.08;;
54871;SDS011;43914;57.680;11.982;2022-08-20T03:28:33;6.83;;;2.70;;
54871;SDS011;43914;57.680;11.982;2022-08-20T03:30:59;7.58;;;2.77;;
54871;SDS011;43914;57.680;11.982;2022-08-20T03:33:26;8.25;;;2.92;;
54871;SDS011;43914;57.680;11.982;2022-08-20T03:35:55;8.03;;;2.98;;
54871;SDS011;43914;57.680;11.982;2022-08-20T03:38:22;6.17;;;2.50;;
54871;SDS011;43914;57.680;11.982;2022-08-20T03:40:49;11.55;;;2.87;;
54871;SDS011;43914;57.680;11.982;2022-08-20T03:43:15;7.50;;;2.60;;
54871;SDS011;43914;57.680;11.982;2022-08-20T03:45:43;6.25;;;2.35;;
54871;SDS011;43914;57.680;11.982;2022-08-20T03:48:11;8.85;;;2.00;;
54871;SDS011;43914;57.680;11.982;2022-08-20T03:50:42;7.42;;;1.92;;
54871;SDS011;43914;57.680;11.982;2022-08-20T03:53:09;7.92;;;2.30;;
54871;SDS011;43914;57.680;11.982;2022-08-20T03:55:37;7.37;;;2.10;;
54871;SDS011;43914;57.680;11.982;2022-08-20T03:58:05;7.10;;;1.98;;
54871;SDS011;43914;57.680;11.982;2022-08-20T04:00:39;6.58;;;2.00;;
54871;SDS011;43914;57.680;11.982;2022-08-20T04:03:11;7.00;;;1.80;;
54871;SDS011;43914;57.680;11.982;2022-08-20T04:05:38;6.17;;;1.95;;
54871;SDS011;43914;57.680;11.982;2022-08-20T04:08:06;4.58;;;1.60;;
54871;SDS011;43914;57.680;11.982;2022-08-20T04:10:36;6.78;;;1.85;;
54871;SDS011;43914;57.680;11.982;2022-08-20T04:13:04;4.83;;;1.70;;
54871;SDS011;43914;57.680;11.982;2022-08-20T04:15:31;5.33;;;1.90;;
54871;SDS011;43914;57.680;11.982;2022-08-20T04:17:59;5.47;;;1.55;;
54871;SDS011;43914;57.680;11.982;2022-08-20T04:20:27;4.47;;;1.60;;
54871;SDS011;43914;57.680;11.982;2022-08-20T04:22:53;5.15;;;1.47;;
54871;SDS011;43914;57.680;11.982;2022-08-20T04:25:21;5.65;;;1.60;;
54871;SDS011;43914;57.680;11.982;2022-08-20T04:27:48;5.35;;;1.50;;
54871;SDS011;43914;57.680;11.982;2022-08-20T04:30:15;4.50;;;1.40;;
54871;SDS011;43914;57.680;11.982;2022-08-20T04:32:45;6.17;;;1.60;;
54871;SDS011;43914;57.680;11.982;2022-08-20T04:35:12;6.45;;;1.60;;
54871;SDS011;43914;57.680;11.982;2022-08-20T04:37:41;6.72;;;1.65;;
54871;SDS011;43914;57.680;11.982;2022-08-20T04:40:09;7.33;;;1.70;;
54871;SDS011;43914;57.680;11.982;2022-08-20T04:42:57;5.47;;;1.57;;
54871;SDS011;43914;57.680;11.982;2022-08-20T04:45:23;5.85;;;1.50;;
54871;SDS011;43914;57.680;11.982;2022-08-20T04:47:49;4.80;;;1.60;;
54871;SDS011;43914;57.680;11.982;2022-08-20T04:50:17;5.62;;;1.50;;
54871;SDS011;43914;57.680;11.982;2022-08-20T04:52:44;7.85;;;1.80;;
54871;SDS011;43914;57.680;11.982;2022-08-20T04:55:12;6.25;;;1.52;;
54871;SDS011;43914;57.680;11.982;2022-08-20T04:57:39;4.55;;;1.37;;
54871;SDS011;43914;57.680;11.982;2022-08-20T05:00:06;5.75;;;1.60;;
54871;SDS011;43914;57.680;11.982;2022-08-20T05:02:38;6.53;;;1.82;;
54871;SDS011;43914;57.680;11.982;2022-08-20T05:05:05;5.33;;;1.40;;
54871;SDS011;43914;57.680;11.982;2022-08-20T05:07:36;6.12;;;1.60;;
54871;SDS011;43914;57.680;11.982;2022-08-20T05:10:12;5.78;;;1.60;;
54871;SDS011;43914;57.680;11.982;2022-08-20T05:12:44;5.00;;;1.50;;
54871;SDS011;43914;57.680;11.982;2022-08-20T05:15:08;6.45;;;1.50;;
54871;SDS011;43914;57.680;11.982;2022-08-20T05:17:36;5.40;;;1.30;;
54871;SDS011;43914;57.680;11.982;2022-08-20T05:20:05;5.67;;;1.60;;
54871;SDS011;43914;57.680;11.982;2022-08-20T05:22:33;5.75;;;1.50;;
54871;SDS011;43914;57.680;11.982;2022-08-20T05:24:59;5.55;;;1.60;;
54871;SDS011;43914;57.680;11.982;2022-08-20T05:27:26;5.12;;;1.40;;
54871;SDS011;43914;57.680;11.982;2022-08-20T05:29:58;5.55;;;1.42;;
54871;SDS011;43914;57.680;11.982;2022-08-20T05:32:28;4.25;;;1.40;;
54871;SDS011;43914;57.680;11.982;2022-08-20T05:34:54;6.00;;;1.37;;
54871;SDS011;43914;57.680;11.982;2022-08-20T05:37:20;5.03;;;1.50;;
54871;SDS011;43914;57.680;11.982;2022-08-20T05:39:46;5.65;;;1.52;;
54871;SDS011;43914;57.680;11.982;2022-08-20T05:42:12;4.65;;;1.50;;
54871;SDS011;43914;57.680;11.982;2022-08-20T05:44:38;4.28;;;1.40;;
54871;SDS011;43914;57.680;11.982;2022-08-20T05:47:04;5.47;;;1.40;;
54871;SDS011;43914;57.680;11.982;2022-08-20T05:49:30;7.10;;;2.10;;
54871;SDS011;43914;57.680;11.982;2022-08-20T05:51:58;6.37;;;1.60;;
54871;SDS011;43914;57.680;11.982;2022-08-20T05:54:24;5.45;;;1.57;;
54871;SDS011;43914;57.680;11.982;2022-08-20T05:56:50;6.78;;;1.50;;
54871;SDS011;43914;57.680;11.982;2022-08-20T05:59:15;4.37;;;1.30;;
54871;SDS011;43914;57.680;11.982;2022-08-20T06:01:42;7.17;;;1.40;;
54871;SDS011;43914;57.680;11.982;2022-08-20T06:04:09;4.42;;;1.32;;
54871;SDS011;43914;57.680;11.982;2022-08-20T06:07:03;6.20;;;1.60;;
54871;SDS011;43914;57.680;11.982;2022-08-20T06:09:31;5.22;;;1.50;;
54871;SDS011;43914;57.680;11.982;2022-08-20T06:12:04;5.72;;;1.60;;
54871;SDS011;43914;57.680;11.982;2022-08-20T06:17:07;6.37;;;1.50;;
54871;SDS011;43914;57.680;11.982;2022-08-20T06:19:36;5.55;;;1.35;;
54871;SDS011;43914;57.680;11.982;2022-08-20T06:22:04;5.85;;;1.75;;
54871;SDS011;43914;57.680;11.982;2022-08-20T06:24:31;5.53;;;1.50;;
54871;SDS011;43914;57.680;11.982;2022-08-20T06:26:58;5.92;;;1.70;;
54871;SDS011;43914;57.680;11.982;2022-08-20T06:29:27;5.45;;;1.50;;
54871;SDS011;43914;57.680;11.982;2022-08-20T06:31:54;6.30;;;1.52;;
54871;SDS011;43914;57.680;11.982;2022-08-20T06:34:20;6.83;;;1.47;;
54871;SDS011;43914;57.680;11.982;2022-08-20T06:36:48;11.57;;;1.72;;
54871;SDS011;43914;57.680;11.982;2022-08-20T06:39:14;8.55;;;1.55;;
54871;SDS011;43914;57.680;11.982;2022-08-20T06:41:41;10.55;;;1.87;;
54871;SDS011;43914;57.680;11.982;2022-08-20T06:44:08;8.48;;;1.52;;
54871;SDS011;43914;57.680;11.982;2022-08-20T06:46:34;8.70;;;1.67;;
54871;SDS011;43914;57.680;11.982;2022-08-20T06:49:01;8.98;;;1.72;;
54871;SDS011;43914;57.680;11.982;2022-08-20T06:51:30;9.55;;;1.52;;
54871;SDS011;43914;57.680;11.982;2022-08-20T06:53:56;9.38;;;1.65;;
54871;SDS011;43914;57.680;11.982;2022-08-20T06:56:22;8.70;;;1.55;;
54871;SDS011;43914;57.680;11.982;2022-08-20T06:58:48;9.90;;;1.65;;
54871;SDS011;43914;57.680;11.982;2022-08-20T07:01:14;9.73;;;1.62;;
54871;SDS011;43914;57.680;11.982;2022-08-20T07:03:42;11.18;;;1.87;;
54871;SDS011;43914;57.680;11.982;2022-08-20T07:06:08;8.38;;;1.72;;
54871;SDS011;43914;57.680;11.982;2022-08-20T07:08:35;10.10;;;2.00;;
54871;SDS011;43914;57.680;11.982;2022-08-20T07:11:01;11.28;;;1.77;;
54871;SDS011;43914;57.680;11.982;2022-08-20T07:13:27;12.37;;;2.37;;
54871;SDS011;43914;57.680;11.982;2022-08-20T07:15:53;10.53;;;1.80;;
54871;SDS011;43914;57.680;11.982;2022-08-20T07:18:19;9.58;;;1.75;;
54871;SDS011;43914;57.680;11.982;2022-08-20T07:20:47;10.20;;;2.00;;
54871;SDS011;43914;57.680;11.982;2022-08-20T07:23:15;10.85;;;1.90;;
54871;SDS011;43914;57.680;11.982;2022-08-20T07:25:42;8.68;;;1.65;;
54871;SDS011;43914;57.680;11.982;2022-08-20T07:28:13;11.20;;;1.77;;
54871;SDS011;43914;57.680;11.982;2022-08-20T07:30:45;9.40;;;1.60;;
54871;SDS011;43914;57.680;11.982;2022-08-20T07:33:31;10.68;;;1.70;;
54871;SDS011;43914;57.680;11.982;2022-08-20T07:35:58;10.58;;;1.77;;
54871;SDS011;43914;57.680;11.982;2022-08-20T07:38:28;7.97;;;1.42;;
54871;SDS011;43914;57.680;11.982;2022-08-20T07:40:56;9.60;;;1.60;;
54871;SDS011;43914;57.680;11.982;2022-08-20T07:43:25;8.00;;;1.55;;
54871;SDS011;43914;57.680;11.982;2022-08-20T07:45:52;9.65;;;1.70;;
54871;SDS011;43914;57.680;11.982;2022-08-20T07:48:22;8.35;;;1.50;;
54871;SDS011;43914;57.680;11.982;2022-08-20T07:50:51;8.80;;;1.75;;
54871;SDS011;43914;57.680;11.982;2022-08-20T07:53:19;7.72;;;1.30;;
54871;SDS011;43914;57.680;11.982;2022-08-20T07:55:45;8.75;;;2.08;;
54871;SDS011;43914;57.680;11.982;2022-08-20T07:58:11;6.47;;;1.20;;
54871;SDS011;43914;57.680;11.982;2022-08-20T08:00:49;7.00;;;1.30;;
54871;SDS011;43914;57.680;11.982;2022-08-20T08:03:16;8.85;;;1.52;;
54871;SDS011;43914;57.680;11.982;2022-08-20T08:05:44;8.50;;;1.50;;
54871;SDS011;43914;57.680;11.982;2022-08-20T08:08:15;9.78;;;1.40;;
54871;SDS011;43914;57.680;11.982;2022-08-20T08:10:46;9.25;;;1.55;;
54871;SDS011;43914;57.680;11.982;2022-08-20T08:13:19;7.33;;;1.47;;
54871;SDS011;43914;57.680;11.982;2022-08-20T08:15:47;7.97;;;1.50;;
54871;SDS011;43914;57.680;11.982;2022-08-20T08:18:17;7.67;;;1.60;;
54871;SDS011;43914;57.680;11.982;2022-08-20T08:20:46;9.23;;;1.70;;
54871;SDS011;43914;57.680;11.982;2022-08-20T08:23:15;9.30;;;1.70;;
54871;SDS011;43914;57.680;11.982;2022-08-20T08:25:41;6.35;;;1.37;;
54871;SDS011;43914;57.680;11.982;2022-08-20T08:28:08;9.53;;;1.70;;
54871;SDS011;43914;57.680;11.982;2022-08-20T08:30:38;9.15;;;1.72;;
54871;SDS011;43914;57.680;11.982;2022-08-20T08:33:06;8.73;;;1.47;;
54871;SDS011;43914;57.680;11.982;2022-08-20T08:35:53;9.80;;;1.60;;
54871;SDS011;43914;57.680;11.982;2022-08-20T08:38:22;8.60;;;1.40;;
54871;SDS011;43914;57.680;11.982;2022-08-20T08:40:50;9.08;;;1.62;;
54871;SDS011;43914;57.680;11.982;2022-08-20T08:43:22;6.28;;;1.20;;
54871;SDS011;43914;57.680;11.982;2022-08-20T08:45:55;10.28;;;1.52;;
54871;SDS011;43914;57.680;11.982;2022-08-20T08:48:34;10.45;;;1.55;;
54871;SDS011;43914;57.680;11.982;2022-08-20T08:51:11;8.35;;;2.00;;
54871;SDS011;43914;57.680;11.982;2022-08-20T08:53:42;7.03;;;1.35;;
54871;SDS011;43914;57.680;11.982;2022-08-20T08:56:12;10.25;;;1.45;;
54871;SDS011;43914;57.680;11.982;2022-08-20T08:58:40;7.75;;;1.50;;
54871;SDS011;43914;57.680;11.982;2022-08-20T09:01:13;8.65;;;2.20;;
54871;SDS011;43914;57.680;11.982;2022-08-20T09:03:39;11.30;;;1.47;;
54871;SDS011;43914;57.680;11.982;2022-08-20T09:06:08;12.10;;;1.72;;
54871;SDS011;43914;57.680;11.982;2022-08-20T09:08:45;6.78;;;1.40;;
54871;SDS011;43914;57.680;11.982;2022-08-20T09:11:14;10.95;;;1.60;;
54871;SDS011;43914;57.680;11.982;2022-08-20T09:13:42;8.40;;;1.42;;
54871;SDS011;43914;57.680;11.982;2022-08-20T09:16:09;8.95;;;1.40;;
54871;SDS011;43914;57.680;11.982;2022-08-20T09:18:37;8.48;;;1.60;;
54871;SDS011;43914;57.680;11.982;2022-08-20T09:21:03;8.38;;;1.60;;
54871;SDS011;43914;57.680;11.982;2022-08-20T09:23:30;12.00;;;1.40;;
54871;SDS011;43914;57.680;11.982;2022-08-20T09:25:57;10.03;;;1.50;;
54871;SDS011;43914;57.680;11.982;2022-08-20T09:28:22;10.03;;;1.80;;
54871;SDS011;43914;57.680;11.982;2022-08-20T09:30:49;7.20;;;1.42;;
54871;SDS011;43914;57.680;11.982;2022-08-20T09:33:15;10.72;;;1.55;;
54871;SDS011;43914;57.680;11.982;2022-08-20T09:35:41;7.08;;;1.40;;
54871;SDS011;43914;57.680;11.982;2022-08-20T09:38:09;9.70;;;1.65;;
54871;SDS011;43914;57.680;11.982;2022-08-20T09:40:34;14.38;;;1.82;;
54871;SDS011;43914;57.680;11.982;2022-08-20T09:43:00;10.40;;;1.77;;
54871;SDS011;43914;57.680;11.982;2022-08-20T09:45:31;9.53;;;1.52;;
54871;SDS011;43914;57.680;11.982;2022-08-20T09:47:57;11.35;;;1.40;;
54871;SDS011;43914;57.680;11.982;2022-08-20T09:50:27;9.93;;;1.52;;
54871;SDS011;43914;57.680;11.982;2022-08-20T09:52:56;7.05;;;1.32;;
54871;SDS011;43914;57.680;11.982;2022-08-20T09:58:02;6.47;;;1.40;;
54871;SDS011;43914;57.680;11.982;2022-08-20T10:00:32;8.85;;;1.37;;
54871;SDS011;43914;57.680;11.982;2022-08-20T10:02:58;7.72;;;1.35;;
54871;SDS011;43914;57.680;11.982;2022-08-20T10:05:25;10.18;;;1.70;;
54871;SDS011;43914;57.680;11.982;2022-08-20T10:07:51;8.88;;;2.20;;
54871;SDS011;43914;57.680;11.982;2022-08-20T10:10:17;9.95;;;1.72;;
54871;SDS011;43914;57.680;11.982;2022-08-20T10:12:43;6.70;;;1.30;;
54871;SDS011;43914;57.680;11.982;2022-08-20T10:15:10;10.45;;;1.65;;
54871;SDS011;43914;57.680;11.982;2022-08-20T10:17:36;7.17;;;1.20;;
54871;SDS011;43914;57.680;11.982;2022-08-20T10:20:07;7.97;;;1.52;;
54871;SDS011;43914;57.680;11.982;2022-08-20T10:22:36;8.48;;;1.70;;
54871;SDS011;43914;57.680;11.982;2022-08-20T10:25:03;10.85;;;1.90;;
54871;SDS011;43914;57.680;11.982;2022-08-20T10:27:30;7.37;;;1.20;;
54871;SDS011;43914;57.680;11.982;2022-08-20T10:29:56;10.75;;;1.45;;
54871;SDS011;43914;57.680;11.982;2022-08-20T10:32:22;9.33;;;1.32;;
54871;SDS011;43914;57.680;11.982;2022-08-20T10:34:48;12.10;;;1.55;;
54871;SDS011;43914;57.680;11.982;2022-08-20T10:37:18;8.58;;;1.75;;
54871;SDS011;43914;57.680;11.982;2022-08-20T10:39:47;8.75;;;1.47;;
54871;SDS011;43914;57.680;11.982;2022-08-20T10:42:13;12.40;;;1.40;;
54871;SDS011;43914;57.680;11.982;2022-08-20T10:44:39;9.68;;;1.50;;
54871;SDS011;43914;57.680;11.982;2022-08-20T10:47:15;8.38;;;1.30;;
54871;SDS011;43914;57.680;11.982;2022-08-20T10:49:51;11.50;;;1.42;;
54871;SDS011;43914;57.680;11.982;2022-08-20T10:52:20;7.03;;;1.20;;
54871;SDS011;43914;57.680;11.982;2022-08-20T10:54:46;7.45;;;1.30;;
54871;SDS011;43914;57.680;11.982;2022-08-20T10:57:17;8.30;;;1.50;;
54871;SDS011;43914;57.680;11.982;2022-08-20T10:59:47;10.08;;;1.70;;
54871;SDS011;43914;57.680;11.982;2022-08-20T11:02:16;6.67;;;1.20;;
54871;SDS011;43914;57.680;11.982;2022-08-20T11:04:43;10.45;;;1.60;;
54871;SDS011;43914;57.680;11.982;2022-08-20T11:07:16;11.10;;;1.50;;
54871;SDS011;43914;57.680;11.982;2022-08-20T11:09:54;9.38;;;1.67;;
54871;SDS011;43914;57.680;11.982;2022-08-20T11:12:20;8.50;;;1.52;;
54871;SDS011;43914;57.680;11.982;2022-08-20T11:14:48;10.45;;;1.67;;
54871;SDS011;43914;57.680;11.982;2022-08-20T11:17:24;6.60;;;1.17;;
54871;SDS011;43914;57.680;11.982;2022-08-20T11:19:50;11.73;;;1.32;;
54871;SDS011;43914;57.680;11.982;2022-08-20T11:22:17;7.35;;;1.22;;
54871;SDS011;43914;57.680;11.982;2022-08-20T11:24:44;7.55;;;1.17;;
54871;SDS011;43914;57.680;11.982;2022-08-20T11:27:10;9.03;;;1.30;;
54871;SDS011;43914;57.680;11.982;2022-08-20T11:29:41;5.50;;;1.20;;
54871;SDS011;43914;57.680;11.982;2022-08-20T11:32:07;8.43;;;1.00;;
54871;SDS011;43914;57.680;11.982;2022-08-20T11:34:33;9.15;;;1.22;;
54871;SDS011;43914;57.680;11.982;2022-08-20T11:36:59;6.58;;;1.00;;
54871;SDS011;43914;57.680;11.982;2022-08-20T11:39:25;6.33;;;0.88;;
54871;SDS011;43914;57.680;11.982;2022-08-20T11:41:51;7.83;;;1.30;;
54871;SDS011;43914;57.680;11.982;2022-08-20T11:44:17;7.50;;;1.20;;
54871;SDS011;43914;57.680;11.982;2022-08-20T11:46:42;6.17;;;1.15;;
54871;SDS011;43914;57.680;11.982;2022-08-20T11:49:08;7.08;;;1.32;;
54871;SDS011;43914;57.680;11.982;2022-08-20T11:51:34;7.17;;;1.10;;
54871;SDS011;43914;57.680;11.982;2022-08-20T11:54:01;7.33;;;1.25;;
54871;SDS011;43914;57.680;11.982;2022-08-20T11:56:29;10.85;;;1.20;;
54871;SDS011;43914;57.680;11.982;2022-08-20T11:58:55;6.70;;;1.07;;
54871;SDS011;43914;57.680;11.982;2022-08-20T12:01:21;6.92;;;1.22;;
54871;SDS011;43914;57.680;11.982;2022-08-20T12:03:47;8.08;;;1.10;;
54871;SDS011;43914;57.680;11.982;2022-08-20T12:06:13;7.78;;;1.50;;
54871;SDS011;43914;57.680;11.982;2022-08-20T12:08:39;7.40;;;1.10;;
54871;SDS011;43914;57.680;11.982;2022-08-20T12:11:04;9.63;;;1.50;;
54871;SDS011;43914;57.680;11.982;2022-08-20T12:13:31;6.15;;;1.30;;
54871;SDS011;43914;57.680;11.982;2022-08-20T12:16:00;11.93;;;1.55;;
54871;SDS011;43914;57.680;11.982;2022-08-20T12:18:26;9.60;;;1.30;;
54871;SDS011;43914;57.680;11.982;2022-08-20T12:20:53;8.25;;;1.40;;
54871;SDS011;43914;57.680;11.982;2022-08-20T12:23:18;11.27;;;1.40;;
54871;SDS011;43914;57.680;11.982;2022-08-20T12:25:45;7.55;;;1.45;;
54871;SDS011;43914;57.680;11.982;2022-08-20T12:28:11;9.05;;;1.40;;
54871;SDS011;43914;57.680;11.982;2022-08-20T12:30:38;6.03;;;0.95;;
54871;SDS011;43914;57.680;11.982;2022-08-20T12:33:04;7.28;;;1.47;;
54871;SDS011;43914;57.680;11.982;2022-08-20T12:35:30;7.83;;;1.42;;
54871;SDS011;43914;57.680;11.982;2022-08-20T12:37:56;9.63;;;1.65;;
54871;SDS011;43914;57.680;11.982;2022-08-20T12:40:24;8.90;;;1.30;;
54871;SDS011;43914;57.680;11.982;2022-08-20T12:42:52;8.35;;;1.30;;
54871;SDS011;43914;57.680;11.982;2022-08-20T12:45:19;7.33;;;1.57;;
54871;SDS011;43914;57.680;11.982;2022-08-20T12:47:46;9.30;;;1.40;;
54871;SDS011;43914;57.680;11.982;2022-08-20T12:50:19;7.67;;;1.40;;
54871;SDS011;43914;57.680;11.982;2022-08-20T12:52:47;7.95;;;1.20;;
54871;SDS011;43914;57.680;11.982;2022-08-20T12:55:15;5.85;;;1.10;;
54871;SDS011;43914;57.680;11.982;2022-08-20T12:57:48;8.13;;;1.65;;
54871;SDS011;43914;57.680;11.982;2022-08-20T13:00:25;6.30;;;1.15;;
54871;SDS011;43914;57.680;11.982;2022-08-20T13:03:01;6.35;;;1.17;;
54871;SDS011;43914;57.680;11.982;2022-08-20T13:05:31;6.05;;;1.20;;
54871;SDS011;43914;57.680;11.982;2022-08-20T13:07:58;7.17;;;1.55;;
54871;SDS011;43914;57.680;11.982;2022-08-20T13:10:26;9.58;;;1.30;;
54871;SDS011;43914;57.680;11.982;2022-08-20T13:12:55;7.67;;;1.37;;
54871;SDS011;43914;57.680;11.982;2022-08-20T13:15:22;9.28;;;1.37;;
54871;SDS011;43914;57.680;11.982;2022-08-20T13:17:53;6.22;;;1.20;;
54871;SDS011;43914;57.680;11.982;2022-08-20T13:20:22;8.40;;;1.20;;
54871;SDS011;43914;57.680;11.982;2022-08-20T13:22:54;7.75;;;1.37;;
54871;SDS011;43914;57.680;11.982;2022-08-20T13:25:21;8.75;;;1.50;;
54871;SDS011;43914;57.680;11.982;2022-08-20T13:27:47;6.53;;;1.40;;
54871;SDS011;43914;57.680;11.982;2022-08-20T13:30:16;6.20;;;1.27;;
54871;SDS011;43914;57.680;11.982;2022-08-20T13:32:44;6.50;;;1.20;;
54871;SDS011;43914;57.680;11.982;2022-08-20T13:35:10;6.85;;;1.30;;
54871;SDS011;43914;57.680;11.982;2022-08-20T13:37:38;7.60;;;1.35;;
54871;SDS011;43914;57.680;11.982;2022-08-20T13:40:05;7.03;;;1.10;;
54871;SDS011;43914;57.680;11.982;2022-08-20T13:42:33;7.17;;;1.20;;
54871;SDS011;43914;57.680;11.982;2022-08-20T13:45:00;8.35;;;1.60;;
54871;SDS011;43914;57.680;11.982;2022-08-20T13:47:31;6.80;;;1.45;;
54871;SDS011;43914;57.680;11.982;2022-08-20T13:50:03;10.00;;;1.55;;
54871;SDS011;43914;57.680;11.982;2022-08-20T13:52:36;9.80;;;1.67;;
54871;SDS011;43914;57.680;11.982;2022-08-20T13:55:03;6.58;;;1.10;;
54871;SDS011;43914;57.680;11.982;2022-08-20T13:57:32;6.75;;;1.20;;
54871;SDS011;43914;57.680;11.982;2022-08-20T13:59:58;7.30;;;1.30;;
54871;SDS011;43914;57.680;11.982;2022-08-20T14:02:24;8.33;;;1.30;;
54871;SDS011;43914;57.680;11.982;2022-08-20T14:04:52;6.22;;;1.50;;
54871;SDS011;43914;57.680;11.982;2022-08-20T14:07:19;7.05;;;1.50;;
54871;SDS011;43914;57.680;11.982;2022-08-20T14:09:50;7.78;;;1.37;;
54871;SDS011;43914;57.680;11.982;2022-08-20T14:12:21;7.28;;;1.22;;
54871;SDS011;43914;57.680;11.982;2022-08-20T14:14:47;7.62;;;1.35;;
54871;SDS011;43914;57.680;11.982;2022-08-20T14:17:16;9.55;;;1.60;;
54871;SDS011;43914;57.680;11.982;2022-08-20T14:19:50;8.28;;;1.57;;
54871;SDS011;43914;57.680;11.982;2022-08-20T14:22:20;8.58;;;1.42;;
54871;SDS011;43914;57.680;11.982;2022-08-20T14:24:47;13.85;;;1.75;;
54871;SDS011;43914;57.680;11.982;2022-08-20T14:27:14;10.25;;;1.52;;
54871;SDS011;43914;57.680;11.982;2022-08-20T14:29:44;5.90;;;1.25;;
54871;SDS011;43914;57.680;11.982;2022-08-20T14:32:11;7.35;;;1.62;;
54871;SDS011;43914;57.680;11.982;2022-08-20T14:34:38;8.43;;;1.55;;
54871;SDS011;43914;57.680;11.982;2022-08-20T14:37:08;7.83;;;1.40;;
54871;SDS011;43914;57.680;11.982;2022-08-20T14:39:48;6.87;;;1.23;;
54871;SDS011;43914;57.680;11.982;2022-08-20T14:42:17;7.30;;;1.47;;
54871;SDS011;43914;57.680;11.982;2022-08-20T14:44:44;6.87;;;1.27;;
54871;SDS011;43914;57.680;11.982;2022-08-20T14:47:14;6.85;;;1.45;;
54871;SDS011;43914;57.680;11.982;2022-08-20T14:49:44;8.50;;;1.50;;
54871;SDS011;43914;57.680;11.982;2022-08-20T14:52:13;5.83;;;1.20;;